Terminal Aerodrome Forecast
Issued by NWS

Home | Current Version | Previous Version | Graphics & Text | Print | Product List | Glossary On
Versions: 1 2 3 4 5 6 7 8 9 10 11 12 13 14 15 16 17 18 19 20 21 22 23
503
FTUS43 KGRB 201131
TAFCWA
TAF
KCWA 201131Z 2012/2112 24007KT P6SM BKN004
      TEMPO 2013/2015 BKN008 BKN015
     FM201500 29006KT P6SM SCT025
     FM201800 29008KT P6SM SKC
     FM210100 VRB03KT P6SM SKC
      TEMPO 2108/2112 3SM BR SCT005=

USA.gov is the U.S. government's official web portal to all federal, state and local government web resources and services.